Time;durP1;ratioP1;P1;durP2;ratioP2;P2;SDS_P1;SDS_P2;PMS_P1;PMS_P2;Temp;Humidity;BMP_temperature;BMP_pressure;BME280_temperature;BME280_humidity;BME280_pressure;Samples;Min_cycle;Max_cycle;Signal;HPM_P1;HPM_P2
2021/07/16 00:00:05;;;;;;;0.67;0.60;;;;;;;;;;5112152;28;20235;-74
2021/07/16 00:02:31;;;;;;;0.67;0.53;;;;;;;;;;5113556;28;20207;-74
2021/07/16 00:04:58;;;;;;;1.20;0.43;;;;;;;;;;5112895;28;20208;-74
2021/07/16 00:07:24;;;;;;;0.68;0.50;;;;;;;;;;5113366;28;20234;-74
2021/07/16 00:09:51;;;;;;;0.40;0.40;;;;;;;;;;5113128;28;20304;-74
2021/07/16 00:12:17;;;;;;;0.63;0.40;;;;;;;;;;5113187;28;20206;-74
2021/07/16 00:14:43;;;;;;;0.60;0.43;;;;;;;;;;5076873;28;20253;-74
2021/07/16 00:17:10;;;;;;;0.77;0.63;;;;;;;;;;5113132;28;20736;-74
2021/07/16 00:19:36;;;;;;;0.90;0.68;;;;;;;;;;5112982;28;20204;-74
2021/07/16 00:22:03;;;;;;;0.30;0.30;;;;;;;;;;5094932;28;20210;-74
2021/07/16 00:24:30;;;;;;;0.75;0.30;;;;;;;;;;5112254;28;20203;-74
2021/07/16 00:26:56;;;;;;;0.40;0.40;;;;;;;;;;5113123;28;20224;-74
2021/07/16 00:29:27;;;;;;;0.77;0.50;;;;;;;;;;5113041;28;20234;-74
2021/07/16 00:31:54;;;;;;;0.63;0.50;;;;;;;;;;5112891;28;20290;-74
2021/07/16 00:34:21;;;;;;;1.50;0.47;;;;;;;;;;5112170;28;20211;-74
2021/07/16 00:36:48;;;;;;;0.80;0.70;;;;;;;;;;5094672;28;20302;-74
2021/07/16 00:39:14;;;;;;;9.07;1.07;;;;;;;;;;5113204;28;20214;-73
2021/07/16 00:41:41;;;;;;;0.50;0.50;;;;;;;;;;5112768;28;20210;-74
2021/07/16 00:44:07;;;;;;;0.95;0.65;;;;;;;;;;5112256;28;20204;-74
2021/07/16 00:46:33;;;;;;;0.50;0.40;;;;;;;;;;5112661;28;20224;-74
2021/07/16 00:49:00;;;;;;;0.70;0.70;;;;;;;;;;5112546;28;20341;-72
2021/07/16 00:51:26;;;;;;;0.53;0.50;;;;;;;;;;5086557;28;20283;-73
2021/07/16 00:53:53;;;;;;;3.60;0.73;;;;;;;;;;5112064;28;20337;-72
2021/07/16 00:56:19;;;;;;;0.47;0.43;;;;;;;;;;5078035;28;20303;-72
2021/07/16 00:58:46;;;;;;;0.90;0.77;;;;;;;;;;5112552;28;20204;-73
2021/07/16 01:34:19;;;;;;;0.40;0.40;;;;;;;;;;5088420;28;20828;-74
2021/07/16 01:36:46;;;;;;;0.50;0.50;;;;;;;;;;5088878;28;20236;-74
2021/07/16 01:39:12;;;;;;;1.03;0.60;;;;;;;;;;5088769;28;20569;-74
2021/07/16 01:41:38;;;;;;;1.13;0.50;;;;;;;;;;5089260;28;20201;-74
2021/07/16 01:44:06;;;;;;;0.70;0.50;;;;;;;;;;5088128;28;20691;-74
2021/07/16 01:46:32;;;;;;;1.27;0.73;;;;;;;;;;5088782;28;20216;-74
2021/07/16 01:48:59;;;;;;;0.87;0.73;;;;;;;;;;5088925;28;20215;-74
2021/07/16 01:51:25;;;;;;;0.47;0.47;;;;;;;;;;5088692;28;20299;-74
2021/07/16 01:53:52;;;;;;;0.40;0.37;;;;;;;;;;5087822;28;20234;-74
2021/07/16 01:56:19;;;;;;;0.57;0.47;;;;;;;;;;5070768;28;20224;-74
2021/07/16 01:58:46;;;;;;;0.50;0.50;;;;;;;;;;5088811;28;20211;-74
2021/07/16 02:01:16;;;;;;;5.07;0.73;;;;;;;;;;5088861;28;20207;-74
2021/07/16 02:03:43;;;;;;;0.80;0.60;;;;;;;;;;5089620;28;20743;-74
2021/07/16 02:06:10;;;;;;;0.50;0.30;;;;;;;;;;5090601;28;20229;-73
2021/07/16 02:08:37;;;;;;;0.87;0.60;;;;;;;;;;5088712;28;20205;-75
2021/07/16 02:11:03;;;;;;;0.40;0.40;;;;;;;;;;5089512;28;20210;-74
2021/07/16 02:13:30;;;;;;;0.67;0.50;;;;;;;;;;5087258;28;20268;-74
2021/07/16 02:15:56;;;;;;;0.40;0.40;;;;;;;;;;5088279;28;20256;-74
2021/07/16 02:18:23;;;;;;;1.07;0.77;;;;;;;;;;5087216;28;20196;-74
2021/07/16 02:20:50;;;;;;;0.70;0.70;;;;;;;;;;5088409;28;20200;-75
2021/07/16 02:23:18;;;;;;;0.80;0.63;;;;;;;;;;5087840;28;20213;-76
2021/07/16 02:25:44;;;;;;;1.00;0.90;;;;;;;;;;5086622;28;20209;-76
2021/07/16 02:28:17;;;;;;;1.53;0.97;;;;;;;;;;5086924;28;20687;-76
2021/07/16 02:30:43;;;;;;;1.37;0.83;;;;;;;;;;5088208;28;20201;-76
2021/07/16 02:33:10;;;;;;;1.10;0.90;;;;;;;;;;5098517;28;20679;-75
2021/07/16 02:35:36;;;;;;;1.30;0.77;;;;;;;;;;5107546;28;20196;-76
2021/07/16 02:38:03;;;;;;;1.40;1.13;;;;;;;;;;5108151;28;20200;-76
2021/07/16 02:40:30;;;;;;;1.73;0.77;;;;;;;;;;5108018;28;20568;-76
2021/07/16 02:42:56;;;;;;;0.60;0.50;;;;;;;;;;5108258;28;20204;-76
2021/07/16 02:45:23;;;;;;;0.70;0.70;;;;;;;;;;5095570;28;20204;-76
2021/07/16 02:47:50;;;;;;;0.40;0.40;;;;;;;;;;5077966;28;20221;-74
2021/07/16 02:50:21;;;;;;;1.80;0.73;;;;;;;;;;5073894;28;20213;-74
2021/07/16 02:52:48;;;;;;;2.47;0.70;;;;;;;;;;5074189;28;20324;-75
2021/07/16 02:55:15;;;;;;;1.50;0.90;;;;;;;;;;5081421;28;20206;-74
2021/07/16 02:57:41;;;;;;;0.77;0.50;;;;;;;;;;5094140;28;20220;-75
2021/07/16 03:00:11;;;;;;;1.13;0.80;;;;;;;;;;5094286;28;20205;-75
2021/07/16 03:02:39;;;;;;;0.70;0.70;;;;;;;;;;5094122;28;20564;-75
2021/07/16 03:05:06;;;;;;;0.70;0.70;;;;;;;;;;5093856;28;20204;-74
2021/07/16 03:07:32;;;;;;;3.37;1.20;;;;;;;;;;5094042;28;20948;-74
2021/07/16 03:09:59;;;;;;;1.60;0.80;;;;;;;;;;5093959;28;20664;-75
2021/07/16 03:12:25;;;;;;;1.23;0.80;;;;;;;;;;5094068;28;20299;-76
2021/07/16 03:14:51;;;;;;;1.30;0.80;;;;;;;;;;5093755;28;20637;-74
2021/07/16 03:17:18;;;;;;;1.50;1.10;;;;;;;;;;5094375;28;20224;-74
2021/07/16 03:19:44;;;;;;;1.57;1.13;;;;;;;;;;5094112;28;20560;-74
2021/07/16 03:22:12;;;;;;;1.40;0.93;;;;;;;;;;5093057;28;20211;-73
2021/07/16 03:24:39;;;;;;;1.40;1.00;;;;;;;;;;5092464;28;20211;-74
2021/07/16 03:27:05;;;;;;;2.00;1.10;;;;;;;;;;5093700;28;20603;-76
2021/07/16 03:29:32;;;;;;;1.37;1.03;;;;;;;;;;5093981;28;20212;-74
2021/07/16 03:31:58;;;;;;;1.37;1.00;;;;;;;;;;5093862;28;20574;-74
2021/07/16 03:34:25;;;;;;;1.20;1.00;;;;;;;;;;5091733;28;20228;-74
2021/07/16 03:36:51;;;;;;;1.60;1.07;;;;;;;;;;5093355;28;20713;-74
2021/07/16 03:39:18;;;;;;;2.00;0.90;;;;;;;;;;5093478;28;20287;-74
2021/07/16 03:41:44;;;;;;;1.63;0.80;;;;;;;;;;5092216;28;20210;-74
2021/07/16 03:44:11;;;;;;;0.53;0.50;;;;;;;;;;5092482;28;20232;-74
2021/07/16 03:46:37;;;;;;;0.67;0.60;;;;;;;;;;5085542;28;20305;-74
2021/07/16 03:49:05;;;;;;;1.27;0.90;;;;;;;;;;5072938;28;20231;-74
2021/07/16 03:51:31;;;;;;;0.67;0.67;;;;;;;;;;5072997;28;20647;-74
2021/07/16 03:53:57;;;;;;;1.03;0.70;;;;;;;;;;5072161;28;20785;-74
2021/07/16 03:56:24;;;;;;;1.23;0.87;;;;;;;;;;5091031;28;20227;-73
2021/07/16 03:58:50;;;;;;;1.03;0.70;;;;;;;;;;5093031;28;20201;-74
2021/07/16 04:01:17;;;;;;;1.27;0.90;;;;;;;;;;5092974;28;20650;-74
2021/07/16 04:03:43;;;;;;;0.63;0.60;;;;;;;;;;5074805;28;20215;-74
2021/07/16 04:06:10;;;;;;;1.03;0.60;;;;;;;;;;5093891;28;20226;-74
2021/07/16 04:08:38;;;;;;;0.70;0.70;;;;;;;;;;5092630;28;20205;-74
2021/07/16 04:11:05;;;;;;;0.60;0.57;;;;;;;;;;5091609;28;20295;-73
2021/07/16 04:13:31;;;;;;;0.70;0.70;;;;;;;;;;5090623;28;20225;-73
2021/07/16 04:15:58;;;;;;;0.60;0.50;;;;;;;;;;5091586;28;20234;-73
2021/07/16 04:18:24;;;;;;;1.03;0.60;;;;;;;;;;5091667;28;20205;-73
2021/07/16 04:20:50;;;;;;;1.17;0.70;;;;;;;;;;5092721;28;20256;-73
2021/07/16 04:23:17;;;;;;;1.20;0.63;;;;;;;;;;5090989;28;20204;-73
2021/07/16 04:25:44;;;;;;;1.03;0.90;;;;;;;;;;5092129;28;20214;-73
2021/07/16 04:28:10;;;;;;;1.20;0.70;;;;;;;;;;5092310;28;20205;-73
2021/07/16 04:30:36;;;;;;;0.87;0.67;;;;;;;;;;5094793;28;20205;-73
2021/07/16 04:33:04;;;;;;;1.40;1.10;;;;;;;;;;5092455;28;20236;-73
2021/07/16 04:35:31;;;;;;;0.90;0.70;;;;;;;;;;5090928;28;20661;-73
2021/07/16 04:37:58;;;;;;;0.80;0.60;;;;;;;;;;5094501;28;20284;-73
2021/07/16 04:40:25;;;;;;;0.50;0.50;;;;;;;;;;5093548;28;20299;-74
2021/07/16 04:42:52;;;;;;;0.80;0.60;;;;;;;;;;5092022;28;20307;-74
2021/07/16 04:45:19;;;;;;;0.70;0.70;;;;;;;;;;5091604;28;20208;-73
2021/07/16 04:47:46;;;;;;;1.20;0.90;;;;;;;;;;5076058;28;20792;-73
2021/07/16 04:50:13;;;;;;;0.97;0.80;;;;;;;;;;5071861;28;20211;-73
2021/07/16 04:52:40;;;;;;;1.20;0.60;;;;;;;;;;5054159;28;20296;-72
2021/07/16 04:55:07;;;;;;;1.07;0.60;;;;;;;;;;5079279;28;20227;-73
2021/07/16 04:57:33;;;;;;;0.90;0.77;;;;;;;;;;5091766;28;20775;-73
2021/07/16 05:00:00;;;;;;;0.67;0.53;;;;;;;;;;5091934;28;20201;-73
2021/07/16 05:02:26;;;;;;;1.02;0.80;;;;;;;;;;5092014;28;20249;-73
2021/07/16 05:04:52;;;;;;;1.00;0.70;;;;;;;;;;5089872;28;20231;-72
2021/07/16 05:07:19;;;;;;;0.82;0.73;;;;;;;;;;5091542;28;20226;-73
2021/07/16 05:09:45;;;;;;;1.10;0.98;;;;;;;;;;5091646;28;20209;-74
2021/07/16 05:12:12;;;;;;;0.93;0.60;;;;;;;;;;5091826;28;20239;-72
2021/07/16 05:14:39;;;;;;;0.55;0.55;;;;;;;;;;5090939;28;20220;-73
2021/07/16 05:17:05;;;;;;;0.40;0.40;;;;;;;;;;5091746;28;20248;-73
2021/07/16 05:19:32;;;;;;;0.28;0.28;;;;;;;;;;5091747;28;20293;-73
2021/07/16 05:21:58;;;;;;;1.42;1.00;;;;;;;;;;5091665;28;20204;-73
2021/07/16 05:24:25;;;;;;;0.30;0.30;;;;;;;;;;5090989;28;20207;-72
2021/07/16 05:26:51;;;;;;;0.30;0.30;;;;;;;;;;5091586;28;20260;-71
2021/07/16 05:29:18;;;;;;;1.35;0.70;;;;;;;;;;5081336;28;20293;-72
2021/07/16 05:31:44;;;;;;;0.75;0.57;;;;;;;;;;5072299;28;20205;-73
2021/07/16 05:34:10;;;;;;;0.52;0.47;;;;;;;;;;5064444;28;20236;-73
2021/07/16 05:36:37;;;;;;;0.52;0.52;;;;;;;;;;5065803;28;20221;-72
2021/07/16 05:39:04;;;;;;;0.68;0.50;;;;;;;;;;5064075;28;20598;-74
2021/07/16 05:41:31;;;;;;;0.65;0.60;;;;;;;;;;5081938;28;20622;-73
2021/07/16 05:43:58;;;;;;;1.08;0.65;;;;;;;;;;5064083;28;20291;-74
2021/07/16 05:46:27;;;;;;;1.00;0.68;;;;;;;;;;5075398;28;20216;-72
2021/07/16 05:48:53;;;;;;;1.42;0.70;;;;;;;;;;5085278;28;20262;-71
2021/07/16 05:51:20;;;;;;;0.90;0.60;;;;;;;;;;5084126;28;20204;-71
2021/07/16 05:53:46;;;;;;;1.13;0.63;;;;;;;;;;5084592;28;20268;-72
2021/07/16 05:56:12;;;;;;;0.70;0.70;;;;;;;;;;5086155;28;20224;-70
2021/07/16 05:58:39;;;;;;;1.27;0.90;;;;;;;;;;5085224;28;20214;-70
2021/07/16 06:01:05;;;;;;;0.82;0.70;;;;;;;;;;5085194;28;20811;-70
2021/07/16 06:03:32;;;;;;;0.70;0.70;;;;;;;;;;5087000;28;20215;-71
2021/07/16 06:05:58;;;;;;;1.00;0.90;;;;;;;;;;5072102;28;20225;-71
2021/07/16 06:08:24;;;;;;;1.23;0.90;;;;;;;;;;5077206;28;20216;-73
2021/07/16 06:10:51;;;;;;;0.80;0.70;;;;;;;;;;5086856;28;20683;-71
2021/07/16 06:13:18;;;;;;;0.85;0.75;;;;;;;;;;5080048;28;20232;-76
2021/07/16 06:15:44;;;;;;;1.70;1.00;;;;;;;;;;5076954;28;20257;-73
2021/07/16 06:18:10;;;;;;;0.80;0.70;;;;;;;;;;5072646;28;20254;-71
2021/07/16 06:20:38;;;;;;;0.73;0.73;;;;;;;;;;5077709;28;20211;-73
2021/07/16 06:23:05;;;;;;;3.85;1.10;;;;;;;;;;5078006;28;20300;-73
2021/07/16 06:25:31;;;;;;;1.25;0.98;;;;;;;;;;5079008;28;20304;-73
2021/07/16 06:27:58;;;;;;;1.55;0.85;;;;;;;;;;5079217;28;20228;-74
2021/07/16 06:30:24;;;;;;;1.20;0.77;;;;;;;;;;5076147;28;20211;-72
2021/07/16 06:32:50;;;;;;;1.73;0.98;;;;;;;;;;5085107;28;20299;-74
2021/07/16 06:35:20;;;;;;;1.45;0.98;;;;;;;;;;5074311;28;20748;-72
2021/07/16 06:37:46;;;;;;;1.50;1.15;;;;;;;;;;5085018;28;20224;-74
2021/07/16 06:40:13;;;;;;;1.10;1.00;;;;;;;;;;5086367;28;20205;-72
2021/07/16 06:42:39;;;;;;;0.82;0.82;;;;;;;;;;5088370;28;20207;-75
2021/07/16 06:45:06;;;;;;;1.20;0.93;;;;;;;;;;5087190;28;20211;-74
2021/07/16 06:47:32;;;;;;;1.15;0.77;;;;;;;;;;5088730;28;20225;-73
2021/07/16 06:49:59;;;;;;;1.23;0.93;;;;;;;;;;5088191;28;20214;-73
2021/07/16 06:52:33;;;;;;;0.65;0.65;;;;;;;;;;5088945;28;20615;-72
2021/07/16 06:55:00;;;;;;;0.70;0.70;;;;;;;;;;5087660;28;20216;-73
2021/07/16 06:57:26;;;;;;;1.10;0.65;;;;;;;;;;5088785;28;20225;-73
2021/07/16 06:59:53;;;;;;;0.90;0.90;;;;;;;;;;5089304;28;20284;-73
2021/07/16 07:02:19;;;;;;;0.80;0.80;;;;;;;;;;5087896;28;20211;-74
2021/07/16 07:04:46;;;;;;;1.40;0.90;;;;;;;;;;5088639;28;20205;-73
2021/07/16 07:07:12;;;;;;;0.77;0.77;;;;;;;;;;5085897;28;20225;-72
2021/07/16 07:09:38;;;;;;;0.73;0.73;;;;;;;;;;5087657;28;20205;-74
2021/07/16 07:12:05;;;;;;;1.13;0.63;;;;;;;;;;5087431;28;20299;-73
2021/07/16 07:14:31;;;;;;;0.43;0.40;;;;;;;;;;5085700;28;20284;-74
2021/07/16 07:16:58;;;;;;;2.38;0.45;;;;;;;;;;5088648;28;20221;-73
2021/07/16 07:19:25;;;;;;;0.68;0.43;;;;;;;;;;5088310;28;20204;-74
2021/07/16 07:21:51;;;;;;;0.68;0.60;;;;;;;;;;5088671;28;20197;-74
2021/07/16 07:24:17;;;;;;;0.47;0.40;;;;;;;;;;5086514;28;20315;-75
2021/07/16 07:26:44;;;;;;;0.40;0.40;;;;;;;;;;5088999;28;20307;-73
2021/07/16 07:29:10;;;;;;;0.38;0.35;;;;;;;;;;5088060;28;20307;-73
2021/07/16 07:31:37;;;;;;;3.83;1.48;;;;;;;;;;5088237;28;20277;-73
2021/07/16 07:34:03;;;;;;;0.20;0.20;;;;;;;;;;5087852;28;20212;-74
2021/07/16 07:36:30;;;;;;;0.20;0.20;;;;;;;;;;5088170;28;20235;-73
2021/07/16 07:38:56;;;;;;;0.30;0.30;;;;;;;;;;5088088;28;20204;-76
2021/07/16 07:41:22;;;;;;;0.30;0.30;;;;;;;;;;5088745;28;20206;-72
2021/07/16 07:43:49;;;;;;;0.20;0.20;;;;;;;;;;5086247;28;20319;-74
2021/07/16 07:46:18;;;;;;;0.30;0.30;;;;;;;;;;5084207;28;20250;-74
2021/07/16 07:48:45;;;;;;;0.10;0.10;;;;;;;;;;5068969;28;20215;-74
2021/07/16 07:51:11;;;;;;;0.10;0.10;;;;;;;;;;5067212;28;20207;-73
2021/07/16 07:53:38;;;;;;;0.20;0.20;;;;;;;;;;5067003;28;20207;-74
2021/07/16 07:56:04;;;;;;;0.10;0.10;;;;;;;;;;5084245;28;20222;-73
2021/07/16 07:58:31;;;;;;;0.30;0.20;;;;;;;;;;5087222;28;20223;-73
2021/07/16 08:00:57;;;;;;;0.20;0.20;;;;;;;;;;5087672;28;20288;-75
2021/07/16 08:03:24;;;;;;;0.30;0.30;;;;;;;;;;5087531;28;20824;-75
2021/07/16 08:05:51;;;;;;;0.30;0.30;;;;;;;;;;5086455;28;20640;-74
2021/07/16 08:08:17;;;;;;;0.13;0.13;;;;;;;;;;5087805;28;20318;-73
2021/07/16 08:10:44;;;;;;;0.20;0.20;;;;;;;;;;5088148;28;20291;-73
2021/07/16 08:13:10;;;;;;;0.35;0.35;;;;;;;;;;5086804;28;20210;-73
2021/07/16 08:15:37;;;;;;;0.40;0.32;;;;;;;;;;5086212;28;20199;-72
2021/07/16 08:18:03;;;;;;;0.20;0.20;;;;;;;;;;5086245;28;20214;-74
2021/07/16 08:20:30;;;;;;;0.60;0.30;;;;;;;;;;5086677;28;20295;-74
2021/07/16 08:22:56;;;;;;;0.50;0.50;;;;;;;;;;5087224;28;20755;-73
2021/07/16 08:25:23;;;;;;;1.10;1.00;;;;;;;;;;5086023;28;20219;-74
2021/07/16 08:27:49;;;;;;;0.30;0.30;;;;;;;;;;5086172;28;20232;-75
2021/07/16 08:30:15;;;;;;;0.20;0.20;;;;;;;;;;5087144;28;20748;-74
2021/07/16 08:32:43;;;;;;;0.47;0.47;;;;;;;;;;5066740;28;20239;-74
2021/07/16 08:35:10;;;;;;;0.40;0.40;;;;;;;;;;5065639;28;20204;-73
2021/07/16 08:37:36;;;;;;;0.32;0.32;;;;;;;;;;5064771;28;20256;-73
2021/07/16 08:40:04;;;;;;;0.73;0.38;;;;;;;;;;5064941;28;21012;-74
2021/07/16 08:42:31;;;;;;;0.68;0.43;;;;;;;;;;5065610;28;20208;-74
2021/07/16 08:44:57;;;;;;;0.52;0.45;;;;;;;;;;5066193;28;20680;-73
2021/07/16 08:47:24;;;;;;;0.20;0.20;;;;;;;;;;5078142;28;20216;-73
2021/07/16 08:49:51;;;;;;;0.43;0.30;;;;;;;;;;5086667;28;20622;-73
2021/07/16 08:52:18;;;;;;;1.98;0.45;;;;;;;;;;5087339;28;20235;-73
2021/07/16 08:54:47;;;;;;;0.30;0.30;;;;;;;;;;5085818;28;20211;-73
2021/07/16 08:57:15;;;;;;;0.28;0.28;;;;;;;;;;5085591;28;20228;-73
2021/07/16 08:59:42;;;;;;;0.20;0.20;;;;;;;;;;5087119;28;20299;-72
2021/07/16 09:02:08;;;;;;;0.28;0.28;;;;;;;;;;5087301;28;20286;-73
2021/07/16 09:04:38;;;;;;;0.30;0.20;;;;;;;;;;5085665;28;20230;-73
2021/07/16 09:07:05;;;;;;;0.10;0.10;;;;;;;;;;5086230;28;20306;-74
2021/07/16 09:09:35;;;;;;;0.40;0.30;;;;;;;;;;5085109;28;20284;-73
2021/07/16 09:12:06;;;;;;;0.10;0.10;;;;;;;;;;5086406;28;20265;-72
2021/07/16 09:14:33;;;;;;;0.30;0.20;;;;;;;;;;5085216;28;20303;-72
2021/07/16 09:16:59;;;;;;;0.22;0.22;;;;;;;;;;5086422;28;20255;-73
2021/07/16 09:19:27;;;;;;;0.30;0.30;;;;;;;;;;5085353;28;20298;-73
2021/07/16 09:22:02;;;;;;;0.20;0.20;;;;;;;;;;5085595;28;20211;-74
2021/07/16 09:24:28;;;;;;;0.28;0.20;;;;;;;;;;5085179;28;20237;-74
2021/07/16 09:26:55;;;;;;;0.20;0.20;;;;;;;;;;5085366;28;20314;-74
2021/07/16 09:29:28;;;;;;;0.08;0.08;;;;;;;;;;5085718;28;20196;-73
2021/07/16 09:32:02;;;;;;;0.20;0.20;;;;;;;;;;5085977;28;20221;-74
2021/07/16 09:34:28;;;;;;;0.10;0.10;;;;;;;;;;5076996;28;20302;-74
2021/07/16 09:36:55;;;;;;;0.10;0.10;;;;;;;;;;5078432;28;20326;-73
2021/07/16 09:39:25;;;;;;;0.25;0.17;;;;;;;;;;5082476;28;20196;-74
2021/07/16 09:41:53;;;;;;;0.10;0.10;;;;;;;;;;5079857;28;20280;-73
2021/07/16 09:44:31;;;;;;;0.10;0.10;;;;;;;;;;5081456;28;20307;-74
2021/07/16 09:47:08;;;;;;;0.35;0.20;;;;;;;;;;5082546;28;20269;-73
2021/07/16 09:49:34;;;;;;;0.15;0.15;;;;;;;;;;5082918;28;20207;-74
2021/07/16 09:52:08;;;;;;;1.10;0.17;;;;;;;;;;5082623;28;20203;-73
2021/07/16 09:54:35;;;;;;;0.20;0.20;;;;;;;;;;5083726;28;20230;-72
2021/07/16 09:57:02;;;;;;;0.75;0.28;;;;;;;;;;5086224;28;20246;-70
2021/07/16 09:59:28;;;;;;;0.20;0.20;;;;;;;;;;5085878;28;20338;-72
2021/07/16 10:01:55;;;;;;;0.13;0.13;;;;;;;;;;5086723;28;20234;-71
2021/07/16 10:04:26;;;;;;;0.20;0.20;;;;;;;;;;5086541;28;20203;-73
2021/07/16 10:06:53;;;;;;;0.32;0.30;;;;;;;;;;5087347;28;20351;-72
2021/07/16 10:09:21;;;;;;;0.43;0.30;;;;;;;;;;5087392;28;20200;-71
2021/07/16 10:11:50;;;;;;;0.20;0.20;;;;;;;;;;5089763;28;20227;-72
2021/07/16 10:14:17;;;;;;;0.20;0.20;;;;;;;;;;5083448;28;21028;-73
2021/07/16 10:16:45;;;;;;;0.40;0.40;;;;;;;;;;5090316;28;20252;-72
2021/07/16 10:19:12;;;;;;;0.10;0.10;;;;;;;;;;5090676;28;20610;-75
2021/07/16 10:21:39;;;;;;;0.57;0.10;;;;;;;;;;5091866;28;20280;-72
2021/07/16 10:24:06;;;;;;;0.43;0.20;;;;;;;;;;5088883;28;20580;-74
2021/07/16 10:26:33;;;;;;;0.25;0.25;;;;;;;;;;5090691;28;20312;-73
2021/07/16 10:28:59;;;;;;;0.30;0.30;;;;;;;;;;5091121;28;20754;-73
2021/07/16 10:31:29;;;;;;;0.20;0.15;;;;;;;;;;5091108;28;20283;-72
2021/07/16 10:34:02;;;;;;;0.28;0.20;;;;;;;;;;5090471;28;20226;-72
2021/07/16 10:36:37;;;;;;;0.10;0.10;;;;;;;;;;5091186;28;20704;-72
2021/07/16 10:39:04;;;;;;;0.17;0.17;;;;;;;;;;5091263;28;20208;-72
2021/07/16 10:41:31;;;;;;;1.17;0.60;;;;;;;;;;5089857;28;20205;-72
2021/07/16 10:43:59;;;;;;;0.60;0.25;;;;;;;;;;5089399;28;20623;-72
2021/07/16 10:46:27;;;;;;;0.60;0.28;;;;;;;;;;5089703;28;20230;-73
2021/07/16 10:48:53;;;;;;;0.50;0.28;;;;;;;;;;5089623;28;20253;-72
2021/07/16 10:51:25;;;;;;;0.30;0.30;;;;;;;;;;5090209;28;20215;-73
2021/07/16 10:53:51;;;;;;;0.55;0.38;;;;;;;;;;5090863;28;20283;-73
2021/07/16 10:56:19;;;;;;;0.55;0.20;;;;;;;;;;5091573;28;20247;-74
2021/07/16 10:58:49;;;;;;;0.30;0.30;;;;;;;;;;5088649;28;20218;-74
2021/07/16 11:01:48;;;;;;;3.38;0.57;;;;;;;;;;5084422;28;20319;-73
2021/07/16 11:04:33;;;;;;;0.30;0.25;;;;;;;;;;5078347;28;20208;-73
2021/07/16 11:06:59;;;;;;;0.28;0.25;;;;;;;;;;5091334;28;20236;-73
2021/07/16 11:09:34;;;;;;;0.30;0.30;;;;;;;;;;5091610;28;20208;-73
2021/07/16 11:12:19;;;;;;;0.43;0.32;;;;;;;;;;5091499;28;20299;-73
2021/07/16 11:14:45;;;;;;;0.40;0.35;;;;;;;;;;5090758;28;20279;-73
2021/07/16 11:17:24;;;;;;;0.22;0.22;;;;;;;;;;5089901;28;20697;-72
2021/07/16 11:20:06;;;;;;;0.30;0.28;;;;;;;;;;5092000;28;20577;-74
2021/07/16 11:22:33;;;;;;;0.30;0.30;;;;;;;;;;5091274;28;20614;-73
2021/07/16 11:24:59;;;;;;;0.30;0.30;;;;;;;;;;5090226;28;20231;-74
2021/07/16 11:27:26;;;;;;;0.38;0.38;;;;;;;;;;5090560;28;20221;-73
2021/07/16 11:29:52;;;;;;;0.60;0.50;;;;;;;;;;5089966;28;20196;-73
2021/07/16 11:32:20;;;;;;;0.40;0.40;;;;;;;;;;5089790;28;20218;-74
2021/07/16 11:34:52;;;;;;;0.50;0.50;;;;;;;;;;5089839;28;20219;-72
2021/07/16 11:37:21;;;;;;;0.43;0.40;;;;;;;;;;5077017;28;20245;-76
2021/07/16 11:39:51;;;;;;;0.95;0.40;;;;;;;;;;5089126;28;20204;-76
2021/07/16 11:42:18;;;;;;;0.73;0.38;;;;;;;;;;5086645;28;20661;-76
2021/07/16 11:44:44;;;;;;;0.30;0.30;;;;;;;;;;5086046;28;20749;-76
2021/07/16 11:47:15;;;;;;;0.93;0.57;;;;;;;;;;5075481;28;20223;-76
2021/07/16 11:49:42;;;;;;;0.50;0.50;;;;;;;;;;5066516;28;20219;-76
2021/07/16 11:52:09;;;;;;;0.30;0.30;;;;;;;;;;5066674;28;20289;-75
2021/07/16 11:54:35;;;;;;;0.32;0.32;;;;;;;;;;5070323;28;20203;-76
2021/07/16 11:57:02;;;;;;;0.38;0.38;;;;;;;;;;5085199;28;20231;-76
2021/07/16 11:59:29;;;;;;;0.47;0.43;;;;;;;;;;5085990;28;20250;-75
2021/07/16 12:02:12;;;;;;;1.10;0.50;;;;;;;;;;5086113;28;20674;-76
2021/07/16 12:04:39;;;;;;;1.13;0.55;;;;;;;;;;5085553;28;20212;-76
2021/07/16 12:07:06;;;;;;;0.40;0.40;;;;;;;;;;5087715;28;20667;-75
2021/07/16 12:09:34;;;;;;;0.52;0.35;;;;;;;;;;5090101;28;20279;-76
2021/07/16 12:12:04;;;;;;;0.22;0.22;;;;;;;;;;5088885;28;20579;-76
2021/07/16 12:15:05;;;;;;;0.22;0.22;;;;;;;;;;5089727;28;20204;-76
2021/07/16 12:17:36;;;;;;;0.60;0.50;;;;;;;;;;5056706;28;20228;-76
2021/07/16 12:20:04;;;;;;;0.50;0.50;;;;;;;;;;5090584;28;20685;-76
2021/07/16 12:22:32;;;;;;;0.40;0.40;;;;;;;;;;5090452;28;20287;-75
2021/07/16 12:24:59;;;;;;;0.68;0.50;;;;;;;;;;5091275;28;20269;-76
2021/07/16 12:27:26;;;;;;;0.38;0.38;;;;;;;;;;5090364;28;20243;-76
2021/07/16 12:29:55;;;;;;;0.63;0.50;;;;;;;;;;5089827;28;20768;-75
2021/07/16 12:32:31;;;;;;;0.28;0.28;;;;;;;;;;5091719;28;20216;-76
2021/07/16 12:34:58;;;;;;;0.60;0.60;;;;;;;;;;5082550;28;20201;-76
2021/07/16 12:37:34;;;;;;;0.40;0.35;;;;;;;;;;5086249;28;20224;-77
2021/07/16 12:40:02;;;;;;;1.25;0.47;;;;;;;;;;5085870;28;20219;-75
2021/07/16 12:42:28;;;;;;;0.38;0.38;;;;;;;;;;5088502;28;20211;-76
2021/07/16 12:45:08;;;;;;;0.40;0.40;;;;;;;;;;5087377;28;20276;-76
2021/07/16 12:47:45;;;;;;;0.30;0.30;;;;;;;;;;5072971;28;20221;-77
2021/07/16 12:50:13;;;;;;;0.73;0.40;;;;;;;;;;5067313;28;20201;-76
2021/07/16 12:52:40;;;;;;;0.40;0.40;;;;;;;;;;5067643;28;20232;-76
2021/07/16 12:55:13;;;;;;;0.95;0.55;;;;;;;;;;5075394;28;20196;-77
2021/07/16 12:57:40;;;;;;;0.70;0.50;;;;;;;;;;5085501;28;20220;-76
2021/07/16 13:00:32;;;;;;;0.20;0.20;;;;;;;;;;5086582;28;20212;-74
2021/07/16 13:03:18;;;;;;;0.43;0.40;;;;;;;;;;5082808;28;20196;-76
2021/07/16 13:05:46;;;;;;;1.70;0.68;;;;;;;;;;5085870;28;20232;-75
2021/07/16 13:08:15;;;;;;;1.05;0.70;;;;;;;;;;5086246;28;20212;-76
2021/07/16 13:10:47;;;;;;;0.68;0.50;;;;;;;;;;5091488;28;20244;-76
2021/07/16 13:13:21;;;;;;;1.38;0.77;;;;;;;;;;5090387;28;20634;-76
2021/07/16 13:16:06;;;;;;;0.70;0.60;;;;;;;;;;5089655;28;20270;-76
2021/07/16 13:18:32;;;;;;;1.65;0.50;;;;;;;;;;5091063;28;20205;-76
2021/07/16 13:20:59;;;;;;;0.40;0.30;;;;;;;;;;5090238;28;20637;-76
2021/07/16 13:23:25;;;;;;;0.30;0.20;;;;;;;;;;5090183;28;20261;-76
2021/07/16 13:25:55;;;;;;;0.30;0.30;;;;;;;;;;5090781;28;20339;-77
2021/07/16 13:28:22;;;;;;;0.28;0.28;;;;;;;;;;5089171;28;20200;-76
2021/07/16 13:30:49;;;;;;;0.30;0.30;;;;;;;;;;5095132;28;20720;-76
2021/07/16 13:33:15;;;;;;;0.25;0.20;;;;;;;;;;5110550;28;20318;-75
2021/07/16 13:35:42;;;;;;;0.65;0.60;;;;;;;;;;5109613;28;20287;-75
2021/07/16 13:38:08;;;;;;;0.30;0.30;;;;;;;;;;5109747;28;20211;-75
2021/07/16 13:40:34;;;;;;;0.28;0.28;;;;;;;;;;5111152;28;20291;-76
2021/07/16 13:43:01;;;;;;;0.47;0.47;;;;;;;;;;5110430;28;20300;-75
2021/07/16 13:45:27;;;;;;;0.50;0.40;;;;;;;;;;5108736;28;20219;-75
2021/07/16 13:47:54;;;;;;;1.48;0.65;;;;;;;;;;5093160;28;20259;-75
2021/07/16 13:50:20;;;;;;;1.42;0.73;;;;;;;;;;5090751;28;20200;-76
2021/07/16 13:52:46;;;;;;;1.20;0.57;;;;;;;;;;5090874;28;20256;-75
2021/07/16 13:55:13;;;;;;;0.70;0.60;;;;;;;;;;5088915;28;20317;-75
2021/07/16 13:57:39;;;;;;;4.72;0.50;;;;;;;;;;5090220;28;20682;-75
2021/07/16 14:00:09;;;;;;;0.68;0.68;;;;;;;;;;5090147;28;20203;-75
2021/07/16 14:02:45;;;;;;;0.57;0.50;;;;;;;;;;5089855;28;20269;-75
2021/07/16 14:05:13;;;;;;;3.53;2.38;;;;;;;;;;5087620;28;20255;-75
2021/07/16 14:07:40;;;;;;;0.50;0.50;;;;;;;;;;5089375;28;20312;-75
2021/07/16 14:10:06;;;;;;;2.15;0.57;;;;;;;;;;5089571;28;20196;-75
2021/07/16 14:12:33;;;;;;;0.82;0.65;;;;;;;;;;5089420;28;20689;-75
2021/07/16 14:14:59;;;;;;;1.02;0.90;;;;;;;;;;5088290;28;20227;-76
2021/07/16 14:17:26;;;;;;;0.47;0.40;;;;;;;;;;5088389;28;20319;-76
2021/07/16 14:19:53;;;;;;;0.40;0.40;;;;;;;;;;5088354;28;20208;-76
2021/07/16 14:22:20;;;;;;;0.85;0.63;;;;;;;;;;5088563;28;20212;-76
2021/07/16 14:24:46;;;;;;;0.40;0.40;;;;;;;;;;5088148;28;20240;-76
2021/07/16 14:27:14;;;;;;;0.65;0.50;;;;;;;;;;5088851;28;20237;-75
2021/07/16 14:29:40;;;;;;;0.60;0.60;;;;;;;;;;5086559;28;20211;-75
2021/07/16 14:32:07;;;;;;;1.08;0.65;;;;;;;;;;5087914;28;20247;-76
2021/07/16 14:34:33;;;;;;;2.65;0.77;;;;;;;;;;5087793;28;20661;-76
2021/07/16 14:37:00;;;;;;;0.60;0.40;;;;;;;;;;5088498;28;20228;-77
2021/07/16 14:39:27;;;;;;;1.20;0.50;;;;;;;;;;5087553;28;20212;-75
2021/07/16 14:41:53;;;;;;;0.70;0.65;;;;;;;;;;5090350;28;20262;-75
2021/07/16 14:44:20;;;;;;;3.75;1.23;;;;;;;;;;5091125;28;20616;-75
2021/07/16 14:46:47;;;;;;;0.60;0.52;;;;;;;;;;5082818;28;20229;-76
2021/07/16 14:49:13;;;;;;;0.65;0.52;;;;;;;;;;5071864;28;20279;-76
2021/07/16 14:51:40;;;;;;;0.55;0.55;;;;;;;;;;5071843;28;20224;-76
2021/07/16 14:54:06;;;;;;;1.05;0.80;;;;;;;;;;5069761;28;20367;-77
2021/07/16 14:56:33;;;;;;;1.60;1.00;;;;;;;;;;5071936;28;20666;-76
2021/07/16 14:59:00;;;;;;;1.08;0.70;;;;;;;;;;5072289;28;20648;-77
2021/07/16 15:01:26;;;;;;;0.90;0.60;;;;;;;;;;5071159;28;20499;-76
2021/07/16 15:03:53;;;;;;;0.50;0.50;;;;;;;;;;5069335;28;20570;-77
2021/07/16 15:06:20;;;;;;;0.55;0.55;;;;;;;;;;5071436;28;20653;-77
2021/07/16 15:08:46;;;;;;;1.50;0.90;;;;;;;;;;5070007;28;20244;-77
2021/07/16 15:11:12;;;;;;;0.60;0.40;;;;;;;;;;5071442;28;20319;-77
2021/07/16 15:13:39;;;;;;;0.50;0.50;;;;;;;;;;5072141;28;20244;-76
2021/07/16 15:16:05;;;;;;;0.77;0.60;;;;;;;;;;5073599;28;20231;-78
2021/07/16 15:18:32;;;;;;;0.50;0.50;;;;;;;;;;5073594;28;20288;-76